createdAt,value
2023-03-08T00:00:14.259Z,8.97
2023-03-08T00:02:40.566Z,8.97
2023-03-08T00:05:07.401Z,8.96
2023-03-08T00:07:34.122Z,8.95
2023-03-08T00:10:00.706Z,8.94
2023-03-08T00:12:28.049Z,8.93
2023-03-08T00:14:54.546Z,8.95
2023-03-08T00:17:21.045Z,8.96
2023-03-08T00:19:47.521Z,8.96
2023-03-08T00:22:13.783Z,8.96
2023-03-08T00:24:40.119Z,8.97
2023-03-08T00:27:06.430Z,8.97
2023-03-08T00:29:32.709Z,8.96
2023-03-08T00:31:59.028Z,8.97
2023-03-08T00:34:25.544Z,8.97
2023-03-08T00:36:51.905Z,8.98
2023-03-08T00:39:18.363Z,8.96
2023-03-08T00:41:44.854Z,8.94
2023-03-08T00:44:11.144Z,8.94
2023-03-08T00:46:37.384Z,8.93
2023-03-08T00:49:05.006Z,8.93
2023-03-08T00:51:31.320Z,8.92
2023-03-08T00:53:57.786Z,8.91
2023-03-08T00:56:24.261Z,8.90
2023-03-08T00:58:50.774Z,8.88
2023-03-08T01:01:18.521Z,8.87
2023-03-08T01:03:44.919Z,8.85
2023-03-08T01:06:12.776Z,8.83
2023-03-08T01:08:41.945Z,8.81
2023-03-08T01:11:14.466Z,8.78
2023-03-08T01:13:40.962Z,8.77
2023-03-08T01:16:14.279Z,8.73
2023-03-08T01:18:40.650Z,8.71
2023-03-08T01:21:06.972Z,8.68
2023-03-08T01:23:33.308Z,8.67
2023-03-08T01:26:00.392Z,8.64
2023-03-08T01:28:26.845Z,8.63
2023-03-08T01:30:53.320Z,8.62
2023-03-08T01:33:21.147Z,8.61
2023-03-08T01:35:48.032Z,8.59
2023-03-08T01:38:15.753Z,8.57
2023-03-08T01:40:42.231Z,8.53
2023-03-08T01:43:32.062Z,8.48
2023-03-08T01:46:17.415Z,8.45
2023-03-08T01:48:47.597Z,8.42
2023-03-08T01:51:16.934Z,8.40
2023-03-08T01:53:44.226Z,8.38
2023-03-08T01:56:12.965Z,8.36
2023-03-08T01:58:42.019Z,8.36
2023-03-08T02:01:08.398Z,8.35
2023-03-08T02:03:34.750Z,8.34
2023-03-08T02:06:01.685Z,8.32
2023-03-08T02:08:27.951Z,8.29
2023-03-08T02:10:54.494Z,8.29
2023-03-08T02:13:21.493Z,8.29
2023-03-08T02:15:49.030Z,8.27
2023-03-08T02:18:15.326Z,8.24
2023-03-08T02:20:42.375Z,8.23
2023-03-08T02:23:19.470Z,8.23
2023-03-08T02:25:53.169Z,8.22
2023-03-08T02:28:24.317Z,8.23
2023-03-08T02:30:53.752Z,8.24
2023-03-08T02:33:20.281Z,8.24
2023-03-08T02:35:46.706Z,8.24
2023-03-08T02:38:13.908Z,8.23
2023-03-08T02:40:40.447Z,8.25
2023-03-08T02:43:06.848Z,8.24
2023-03-08T02:45:34.078Z,8.25
2023-03-08T02:48:01.328Z,8.28
2023-03-08T02:50:27.946Z,8.29
2023-03-08T02:52:54.487Z,8.30
2023-03-08T02:55:21.001Z,8.32
2023-03-08T02:57:47.301Z,8.35
2023-03-08T03:00:13.978Z,8.37
2023-03-08T03:02:40.623Z,8.39
2023-03-08T03:05:10.865Z,8.40
2023-03-08T03:07:38.836Z,8.42
2023-03-08T03:10:06.223Z,8.43
2023-03-08T03:12:33.209Z,8.44
2023-03-08T03:15:01.141Z,8.44
2023-03-08T03:17:27.642Z,8.43
2023-03-08T03:19:53.981Z,8.44
2023-03-08T03:22:20.313Z,8.45
2023-03-08T03:24:46.612Z,8.45
2023-03-08T03:27:12.834Z,8.48
2023-03-08T03:29:39.322Z,8.50
2023-03-08T03:32:05.790Z,8.52
2023-03-08T03:34:32.091Z,8.53
2023-03-08T03:36:58.578Z,8.54
2023-03-08T03:39:24.959Z,8.57
2023-03-08T03:41:51.331Z,8.59
2023-03-08T03:44:17.684Z,8.60
2023-03-08T03:46:44.202Z,8.63
2023-03-08T03:49:10.704Z,8.66
2023-03-08T03:51:37.985Z,8.69
2023-03-08T03:54:06.469Z,8.70
2023-03-08T03:56:33.832Z,8.71
2023-03-08T03:59:00.124Z,8.71
2023-03-08T04:01:30.702Z,8.71
2023-03-08T04:03:57.766Z,8.72
2023-03-08T04:06:25.596Z,8.71
2023-03-08T04:08:52.507Z,8.73
2023-03-08T04:11:20.980Z,8.75
2023-03-08T04:13:47.443Z,8.75
2023-03-08T04:16:18.930Z,8.78
2023-03-08T04:18:45.617Z,8.79
2023-03-08T04:21:11.992Z,8.81
2023-03-08T04:23:38.327Z,8.81
2023-03-08T04:26:05.226Z,8.82
2023-03-08T04:28:31.840Z,8.84
2023-03-08T04:30:58.129Z,8.84
2023-03-08T04:33:24.677Z,8.84
2023-03-08T04:35:51.513Z,8.85
2023-03-08T04:38:17.992Z,8.85
2023-03-08T04:41:02.269Z,8.85
2023-03-08T04:43:28.941Z,8.86
2023-03-08T04:45:55.236Z,8.87
2023-03-08T04:48:21.536Z,8.85
2023-03-08T04:50:55.207Z,8.88
2023-03-08T04:53:22.934Z,8.90
2023-03-08T04:55:49.576Z,8.89
2023-03-08T04:58:15.908Z,8.92
2023-03-08T05:00:42.486Z,8.91
2023-03-08T05:03:09.190Z,8.92
2023-03-08T05:05:35.938Z,8.92
2023-03-08T05:08:04.236Z,8.91
2023-03-08T05:10:33.477Z,8.93
2023-03-08T05:13:00.799Z,8.92
2023-03-08T05:15:27.299Z,8.91
2023-03-08T05:17:53.522Z,8.91
2023-03-08T05:20:19.894Z,8.92
2023-03-08T05:22:57.975Z,8.88
2023-03-08T05:25:25.500Z,8.88
2023-03-08T05:27:51.730Z,8.88
2023-03-08T05:30:18.165Z,8.87
2023-03-08T05:32:44.427Z,8.88
2023-03-08T05:35:10.681Z,8.88
2023-03-08T05:37:36.900Z,8.89
2023-03-08T05:40:05.895Z,8.91
2023-03-08T05:42:32.658Z,8.91
2023-03-08T05:45:00.400Z,8.92
2023-03-08T05:47:27.435Z,8.92
2023-03-08T05:49:53.717Z,8.92
2023-03-08T05:52:20.030Z,8.93
2023-03-08T05:54:47.854Z,8.93
2023-03-08T05:57:14.327Z,8.94
2023-03-08T05:59:40.616Z,8.95
2023-03-08T06:02:07.128Z,8.96
2023-03-08T06:04:33.603Z,8.97
2023-03-08T06:07:00.095Z,8.97
2023-03-08T06:09:26.386Z,8.97
2023-03-08T06:11:52.898Z,8.95
2023-03-08T06:14:19.136Z,9.00
2023-03-08T06:16:48.344Z,9.01
2023-03-08T06:19:15.233Z,9.02
2023-03-08T06:21:41.640Z,9.03
2023-03-08T06:24:08.047Z,9.05
2023-03-08T06:26:34.701Z,9.05
2023-03-08T06:29:01.040Z,9.06
2023-03-08T06:31:27.398Z,9.07
2023-03-08T06:33:53.671Z,9.08
2023-03-08T06:36:20.797Z,9.09
2023-03-08T06:38:48.022Z,9.10
2023-03-08T06:41:15.398Z,9.10
2023-03-08T06:43:41.940Z,9.10
2023-03-08T06:46:13.140Z,9.10
2023-03-08T06:48:39.484Z,9.10
2023-03-08T06:51:06.090Z,9.09
2023-03-08T06:53:33.016Z,9.08
2023-03-08T06:56:03.100Z,9.08
2023-03-08T06:58:29.350Z,9.06
2023-03-08T07:00:55.594Z,9.05
2023-03-08T07:03:22.950Z,9.01
2023-03-08T07:05:49.195Z,9.00
2023-03-08T07:08:15.436Z,8.97
2023-03-08T07:10:41.736Z,8.95
2023-03-08T07:13:08.241Z,8.93
2023-03-08T07:15:34.778Z,8.90
2023-03-08T07:18:01.017Z,8.85
2023-03-08T07:20:27.866Z,8.82
2023-03-08T07:22:54.259Z,8.77
2023-03-08T07:25:20.860Z,8.72
2023-03-08T07:27:47.607Z,8.68
2023-03-08T07:30:15.361Z,8.65
2023-03-08T07:32:44.945Z,8.62
2023-03-08T07:35:12.933Z,8.56
2023-03-08T07:37:39.510Z,8.53
2023-03-08T07:40:06.629Z,8.50
2023-03-08T07:42:32.885Z,8.48
2023-03-08T07:44:59.293Z,8.46
2023-03-08T07:47:25.565Z,8.43
2023-03-08T07:49:51.968Z,8.44
2023-03-08T07:52:18.303Z,8.44
2023-03-08T07:54:44.529Z,8.44
2023-03-08T07:57:14.371Z,8.45
2023-03-08T07:59:41.121Z,8.44
2023-03-08T08:02:10.810Z,8.46
2023-03-08T08:04:37.276Z,8.44
2023-03-08T08:07:05.123Z,8.44
2023-03-08T08:09:31.690Z,8.46
2023-03-08T08:11:58.166Z,8.45
2023-03-08T08:14:24.519Z,8.44
2023-03-08T08:16:51.827Z,8.44
2023-03-08T08:19:19.118Z,8.44
2023-03-08T08:21:46.403Z,8.42
2023-03-08T08:24:12.722Z,8.42
2023-03-08T08:26:39.044Z,8.42
2023-03-08T08:29:05.470Z,8.40
2023-03-08T08:31:32.101Z,8.41
2023-03-08T08:33:59.326Z,8.40
2023-03-08T08:36:25.865Z,8.41
2023-03-08T08:38:52.323Z,8.41
2023-03-08T08:41:19.871Z,8.40
2023-03-08T08:43:46.713Z,8.40
2023-03-08T08:46:13.742Z,8.40
2023-03-08T08:48:40.259Z,8.39
2023-03-08T08:51:07.519Z,8.40
2023-03-08T08:53:34.337Z,8.39
2023-03-08T08:56:20.241Z,8.37
2023-03-08T08:58:52.030Z,8.34
2023-03-08T09:01:20.051Z,8.32
2023-03-08T09:03:46.903Z,8.31
2023-03-08T09:06:13.913Z,8.29
2023-03-08T09:08:40.298Z,8.28
2023-03-08T09:11:07.610Z,8.27
2023-03-08T09:13:34.471Z,8.25
2023-03-08T09:16:01.015Z,8.25
2023-03-08T09:18:27.516Z,8.23
2023-03-08T09:20:53.903Z,8.21
2023-03-08T09:23:20.355Z,8.20
2023-03-08T09:25:54.481Z,8.19
2023-03-08T09:28:20.741Z,8.17
2023-03-08T09:30:47.003Z,8.15
2023-03-08T09:33:13.281Z,8.11
2023-03-08T09:35:39.807Z,8.08
2023-03-08T09:38:06.150Z,8.05
2023-03-08T09:40:37.544Z,8.03
2023-03-08T09:43:05.217Z,7.97
2023-03-08T09:45:31.595Z,7.92
2023-03-08T09:48:06.765Z,7.90
2023-03-08T09:50:44.052Z,7.86
2023-03-08T09:53:10.256Z,7.83
2023-03-08T09:55:38.406Z,7.81
2023-03-08T09:58:23.046Z,7.78
2023-03-08T10:00:49.575Z,7.78
2023-03-08T10:03:36.930Z,7.75
2023-03-08T10:06:32.678Z,7.74
2023-03-08T10:09:01.755Z,7.72
2023-03-08T10:11:44.234Z,7.72
2023-03-08T10:14:22.832Z,7.71
2023-03-08T10:16:52.564Z,7.71
2023-03-08T10:19:26.717Z,7.71
2023-03-08T10:21:53.980Z,7.73
2023-03-08T10:24:27.297Z,7.73
2023-03-08T10:27:12.425Z,7.73
2023-03-08T10:29:38.658Z,7.75
2023-03-08T10:32:05.113Z,7.74
2023-03-08T10:34:32.544Z,7.75
2023-03-08T10:37:01.038Z,7.74
2023-03-08T10:39:27.368Z,7.75
2023-03-08T10:41:56.158Z,7.77
2023-03-08T10:44:34.044Z,7.76
2023-03-08T10:47:01.932Z,7.77
2023-03-08T10:49:28.223Z,7.77
2023-03-08T10:52:01.087Z,7.78
2023-03-08T10:54:28.296Z,7.78
2023-03-08T10:56:59.169Z,7.76
2023-03-08T10:59:34.573Z,7.75
2023-03-08T11:02:12.810Z,7.76
2023-03-08T11:04:49.868Z,7.76
2023-03-08T11:07:24.244Z,7.72
2023-03-08T11:09:52.685Z,7.73
2023-03-08T11:12:26.062Z,7.75
2023-03-08T11:14:52.705Z,7.76
2023-03-08T11:17:37.549Z,7.75
2023-03-08T11:20:10.571Z,7.78
2023-03-08T11:22:44.993Z,7.80
2023-03-08T11:25:19.957Z,7.80
2023-03-08T11:27:49.387Z,7.80
2023-03-08T11:30:18.589Z,7.83
2023-03-08T11:33:04.218Z,7.87
2023-03-08T11:35:45.878Z,7.89
2023-03-08T11:38:17.780Z,7.89
2023-03-08T11:40:46.828Z,7.93
2023-03-08T11:43:21.349Z,7.95
2023-03-08T11:46:01.870Z,7.98
2023-03-08T11:48:47.103Z,8.00
2023-03-08T11:51:13.436Z,8.05
2023-03-08T11:53:48.744Z,8.08
2023-03-08T11:56:38.565Z,8.09
2023-03-08T11:59:10.892Z,8.11
2023-03-08T12:02:03.699Z,8.14
2023-03-08T12:04:43.655Z,8.14
2023-03-08T12:07:18.015Z,8.15
2023-03-08T12:10:02.079Z,8.14
2023-03-08T12:12:31.481Z,8.14
2023-03-08T12:15:07.655Z,8.14
2023-03-08T12:17:40.593Z,8.08
2023-03-08T12:20:12.971Z,8.10
2023-03-08T12:23:13.367Z,8.09
2023-03-08T12:25:41.573Z,8.08
2023-03-08T12:28:18.158Z,8.10
2023-03-08T12:30:53.535Z,8.09
2023-03-08T12:33:20.272Z,8.10
2023-03-08T12:35:51.615Z,8.12
2023-03-08T12:38:18.049Z,8.11
2023-03-08T12:40:47.047Z,8.11
2023-03-08T12:43:19.480Z,8.12
2023-03-08T12:45:48.557Z,8.14
2023-03-08T12:48:18.294Z,8.14
2023-03-08T12:50:58.051Z,8.14
2023-03-08T12:53:39.056Z,8.16
2023-03-08T12:56:07.122Z,8.17
2023-03-08T12:58:35.038Z,8.21
2023-03-08T13:01:03.168Z,8.22
2023-03-08T13:03:41.308Z,8.22
2023-03-08T13:06:16.722Z,8.26
2023-03-08T13:08:49.032Z,8.29
2023-03-08T13:11:16.954Z,8.31
2023-03-08T13:13:56.191Z,8.34
2023-03-08T13:16:32.218Z,8.37
2023-03-08T13:19:06.582Z,8.40
2023-03-08T13:21:38.523Z,8.44
2023-03-08T13:24:13.826Z,8.47
2023-03-08T13:26:57.919Z,8.48
2023-03-08T13:29:29.390Z,8.49
2023-03-08T13:31:55.927Z,8.52
2023-03-08T13:34:27.092Z,8.54
2023-03-08T13:36:55.707Z,8.57
2023-03-08T13:39:23.484Z,8.59
2023-03-08T13:41:49.845Z,8.62
2023-03-08T13:44:23.908Z,8.65
2023-03-08T13:46:52.735Z,8.67
2023-03-08T13:49:24.113Z,8.68
2023-03-08T13:51:53.920Z,8.70
2023-03-08T13:54:29.162Z,8.70
2023-03-08T13:56:56.600Z,8.71
2023-03-08T13:59:25.287Z,8.71
2023-03-08T14:01:52.849Z,8.72
2023-03-08T14:04:26.748Z,8.72
2023-03-08T14:06:54.393Z,8.73
2023-03-08T14:09:21.300Z,8.73
2023-03-08T14:11:55.474Z,8.73
2023-03-08T14:14:40.747Z,8.73
2023-03-08T14:17:07.545Z,8.74
2023-03-08T14:19:35.322Z,8.74
2023-03-08T14:22:03.748Z,8.75
2023-03-08T14:24:34.436Z,8.75
2023-03-08T14:27:06.676Z,8.75
2023-03-08T14:29:34.536Z,8.75
2023-03-08T14:32:06.187Z,8.77
2023-03-08T14:34:35.954Z,8.78
2023-03-08T14:37:25.602Z,8.79
2023-03-08T14:39:53.504Z,8.79
2023-03-08T14:42:52.235Z,8.82
2023-03-08T14:45:21.725Z,8.84
2023-03-08T14:47:49.173Z,8.87
2023-03-08T14:50:23.476Z,8.90
2023-03-08T14:52:51.273Z,8.95
2023-03-08T14:55:35.305Z,8.97
2023-03-08T14:58:03.206Z,8.99
2023-03-08T15:00:30.141Z,9.02
2023-03-08T15:03:00.207Z,9.03
2023-03-08T15:05:29.531Z,9.06
2023-03-08T15:07:57.394Z,9.07
2023-03-08T15:10:23.651Z,9.09
2023-03-08T15:12:49.899Z,9.11
2023-03-08T15:15:16.193Z,9.12
2023-03-08T15:17:42.602Z,9.11
2023-03-08T15:20:10.926Z,9.11
2023-03-08T15:22:42.352Z,9.10
2023-03-08T15:25:19.385Z,9.09
2023-03-08T15:27:48.212Z,9.08
2023-03-08T15:30:19.712Z,9.06
2023-03-08T15:32:46.630Z,9.06
2023-03-08T15:35:13.371Z,9.04
2023-03-08T15:37:39.851Z,9.05
2023-03-08T15:40:08.373Z,9.05
2023-03-08T15:42:35.025Z,9.05
2023-03-08T15:45:01.569Z,9.06
2023-03-08T15:47:27.828Z,9.06
2023-03-08T15:49:55.258Z,9.05
2023-03-08T15:52:23.338Z,9.03
2023-03-08T15:54:51.173Z,9.02
2023-03-08T15:57:17.742Z,9.02
2023-03-08T15:59:44.228Z,9.03
2023-03-08T16:02:15.275Z,9.02
2023-03-08T16:04:45.807Z,9.02
2023-03-08T16:07:13.722Z,9.02
2023-03-08T16:09:47.125Z,9.03
2023-03-08T16:12:14.634Z,9.02
2023-03-08T16:14:45.853Z,9.02
2023-03-08T16:17:12.219Z,9.01
2023-03-08T16:19:38.459Z,9.04
2023-03-08T16:22:05.059Z,9.03
2023-03-08T16:24:31.294Z,9.03
2023-03-08T16:26:59.496Z,9.04
2023-03-08T16:29:26.893Z,9.04
2023-03-08T16:31:53.179Z,9.04
2023-03-08T16:34:21.979Z,9.04
2023-03-08T16:36:48.259Z,9.04
2023-03-08T16:39:14.968Z,9.03
2023-03-08T16:41:41.362Z,9.04
2023-03-08T16:44:19.568Z,9.04
2023-03-08T16:46:48.255Z,9.04
2023-03-08T16:49:15.369Z,9.05
2023-03-08T16:51:42.867Z,9.05
2023-03-08T16:54:11.014Z,9.04
2023-03-08T16:56:40.406Z,9.06
2023-03-08T16:59:06.713Z,9.06
2023-03-08T17:01:34.977Z,9.06
2023-03-08T17:04:01.327Z,9.07
2023-03-08T17:06:29.531Z,9.07
2023-03-08T17:08:56.729Z,9.09
2023-03-08T17:11:27.375Z,9.09
2023-03-08T17:13:58.208Z,9.09
2023-03-08T17:16:25.651Z,9.09
2023-03-08T17:18:52.618Z,9.09
2023-03-08T17:21:20.844Z,9.09
2023-03-08T17:23:47.875Z,9.09
2023-03-08T17:26:14.681Z,9.08
2023-03-08T17:28:41.664Z,9.07
2023-03-08T17:31:08.874Z,9.05
2023-03-08T17:33:35.744Z,9.04
2023-03-08T17:36:02.204Z,9.03
2023-03-08T17:38:28.875Z,9.04
2023-03-08T17:40:55.357Z,9.02
2023-03-08T17:43:21.691Z,9.02
2023-03-08T17:45:58.384Z,9.02
2023-03-08T17:48:27.181Z,9.02
2023-03-08T17:50:54.158Z,9.01
2023-03-08T17:53:22.065Z,9.01
2023-03-08T17:55:50.594Z,9.00
2023-03-08T17:58:16.886Z,8.99
2023-03-08T18:00:43.794Z,8.98
2023-03-08T18:03:12.716Z,8.98
2023-03-08T18:05:47.016Z,8.97
2023-03-08T18:08:13.306Z,8.97
2023-03-08T18:10:39.616Z,8.96
2023-03-08T18:13:07.322Z,8.96
2023-03-08T18:15:33.972Z,8.95
2023-03-08T18:18:00.352Z,8.96
2023-03-08T18:20:26.652Z,8.97
2023-03-08T18:22:52.900Z,8.98
2023-03-08T18:25:20.416Z,8.99
2023-03-08T18:27:49.864Z,9.00
2023-03-08T18:30:16.431Z,9.03
2023-03-08T18:32:42.774Z,9.05
2023-03-08T18:35:09.399Z,9.06
2023-03-08T18:37:35.964Z,9.05
2023-03-08T18:40:02.473Z,9.05
2023-03-08T18:42:29.520Z,9.05
2023-03-08T18:44:56.939Z,9.03
2023-03-08T18:47:23.637Z,9.02
2023-03-08T18:49:50.123Z,9.01
2023-03-08T18:52:18.637Z,8.99
2023-03-08T18:54:44.925Z,8.97
2023-03-08T18:57:11.374Z,8.95
2023-03-08T18:59:37.665Z,8.92
2023-03-08T19:02:04.218Z,8.91
2023-03-08T19:04:30.699Z,8.89
2023-03-08T19:06:57.995Z,8.88
2023-03-08T19:09:24.328Z,8.87
2023-03-08T19:11:50.796Z,8.86
2023-03-08T19:14:17.428Z,8.86
2023-03-08T19:16:44.084Z,8.85
2023-03-08T19:19:15.255Z,8.84
2023-03-08T19:21:43.387Z,8.83
2023-03-08T19:24:13.429Z,8.81
2023-03-08T19:26:41.325Z,8.81
2023-03-08T19:29:12.799Z,8.80
2023-03-08T19:31:41.081Z,8.78
2023-03-08T19:34:08.756Z,8.78
2023-03-08T19:36:35.584Z,8.78
2023-03-08T19:39:02.716Z,8.77
2023-03-08T19:41:29.038Z,8.75
2023-03-08T19:43:56.337Z,8.75
2023-03-08T19:46:22.766Z,8.77
2023-03-08T19:48:49.292Z,8.77
2023-03-08T19:51:18.980Z,8.78
2023-03-08T19:53:45.195Z,8.79
2023-03-08T19:56:15.979Z,8.80
2023-03-08T19:58:42.445Z,8.80
2023-03-08T20:01:09.593Z,8.79
2023-03-08T20:03:36.130Z,8.79
2023-03-08T20:06:04.316Z,8.78
2023-03-08T20:08:31.014Z,8.77
2023-03-08T20:10:57.240Z,8.79
2023-03-08T20:13:23.602Z,8.79
2023-03-08T20:15:49.869Z,8.76
2023-03-08T20:18:16.406Z,8.75
2023-03-08T20:20:44.482Z,8.73
2023-03-08T20:23:10.792Z,8.75
2023-03-08T20:25:38.164Z,8.75
2023-03-08T20:28:04.823Z,8.74
2023-03-08T20:30:31.232Z,8.75
2023-03-08T20:32:57.624Z,8.75
2023-03-08T20:35:25.314Z,8.75
2023-03-08T20:37:51.700Z,8.74
2023-03-08T20:40:20.740Z,8.74
2023-03-08T20:42:47.296Z,8.75
2023-03-08T20:45:15.012Z,8.75
2023-03-08T20:47:41.523Z,8.75
2023-03-08T20:50:08.239Z,8.76
2023-03-08T20:52:35.648Z,8.78
2023-03-08T20:55:02.597Z,8.78
2023-03-08T20:57:28.828Z,8.77
2023-03-08T20:59:55.501Z,8.78
2023-03-08T21:02:22.019Z,8.77
2023-03-08T21:04:48.495Z,8.77
2023-03-08T21:07:14.882Z,8.75
2023-03-08T21:09:43.141Z,8.74
2023-03-08T21:12:09.863Z,8.72
2023-03-08T21:14:36.694Z,8.72
2023-03-08T21:17:05.222Z,8.69
2023-03-08T21:19:31.509Z,8.67
2023-03-08T21:21:57.870Z,8.65
2023-03-08T21:24:24.259Z,8.63
2023-03-08T21:26:51.889Z,8.60
2023-03-08T21:29:18.925Z,8.60
2023-03-08T21:31:48.460Z,8.58
2023-03-08T21:34:16.482Z,8.58
2023-03-08T21:36:43.090Z,8.57
2023-03-08T21:39:09.648Z,8.56
2023-03-08T21:41:38.099Z,8.55
2023-03-08T21:44:06.018Z,8.54
2023-03-08T21:46:33.753Z,8.53
2023-03-08T21:49:00.160Z,8.50
2023-03-08T21:51:26.671Z,8.50
2023-03-08T21:53:54.372Z,8.49
2023-03-08T21:56:20.612Z,8.48
2023-03-08T21:58:47.103Z,8.49
2023-03-08T22:01:17.494Z,8.47
2023-03-08T22:03:43.742Z,8.47
2023-03-08T22:06:10.149Z,8.46
2023-03-08T22:08:36.431Z,8.46
2023-03-08T22:11:02.725Z,8.46
2023-03-08T22:13:29.046Z,8.47
2023-03-08T22:15:55.684Z,8.46
2023-03-08T22:18:21.972Z,8.47
2023-03-08T22:20:48.719Z,8.48
2023-03-08T22:23:17.572Z,8.47
2023-03-08T22:25:43.880Z,8.48
2023-03-08T22:28:10.391Z,8.48
2023-03-08T22:30:39.388Z,8.50
2023-03-08T22:33:07.889Z,8.50
2023-03-08T22:35:34.444Z,8.50
2023-03-08T22:38:01.195Z,8.52
2023-03-08T22:40:27.464Z,8.52
2023-03-08T22:42:54.001Z,8.53
2023-03-08T22:45:20.294Z,8.52
2023-03-08T22:47:46.775Z,8.52
2023-03-08T22:50:14.588Z,8.53
2023-03-08T22:52:40.833Z,8.52
2023-03-08T22:55:07.425Z,8.50
2023-03-08T22:57:35.774Z,8.50
2023-03-08T23:00:02.365Z,8.50
2023-03-08T23:02:30.314Z,8.49
2023-03-08T23:04:57.908Z,8.49
2023-03-08T23:07:24.181Z,8.49
2023-03-08T23:09:51.054Z,8.50
2023-03-08T23:12:17.592Z,8.49
2023-03-08T23:14:45.573Z,8.49
2023-03-08T23:17:11.857Z,8.47
2023-03-08T23:19:38.304Z,8.45
2023-03-08T23:22:04.607Z,8.44
2023-03-08T23:24:30.856Z,8.42
2023-03-08T23:27:02.801Z,8.41
2023-03-08T23:29:29.174Z,8.41
2023-03-08T23:31:55.861Z,8.39
2023-03-08T23:34:22.519Z,8.39
2023-03-08T23:36:49.421Z,8.37
2023-03-08T23:39:15.926Z,8.36
2023-03-08T23:41:42.417Z,8.35
2023-03-08T23:44:10.056Z,8.35
2023-03-08T23:46:36.366Z,8.36
2023-03-08T23:49:04.328Z,8.37
2023-03-08T23:51:32.152Z,8.38
2023-03-08T23:53:59.450Z,8.38
2023-03-08T23:56:37.691Z,8.40
2023-03-08T23:59:09.958Z,8.42
